Time;durP1;ratioP1;P1;durP2;ratioP2;P2;SDS_P1;SDS_P2;PMS_P1;PMS_P2;Temp;Humidity;BMP_temperature;BMP_pressure;BME280_temperature;BME280_humidity;BME280_pressure;Samples;Min_cycle;Max_cycle;Signal;HPM_P1;HPM_P2
2023/09/03 00:01:33;;;;;;;5.13;2.45;;;22.20;92.50;;;;;;5071802;28;20173;-69
2023/09/03 00:03:59;;;;;;;5.60;2.63;;;22.00;92.30;;;;;;5087393;28;20072;-69
2023/09/03 00:06:26;;;;;;;5.25;2.65;;;21.80;92.80;;;;;;5057186;28;20052;-70
2023/09/03 00:08:52;;;;;;;4.80;2.40;;;22.00;92.30;;;;;;5050885;28;20045;-69
2023/09/03 00:11:18;;;;;;;4.38;2.28;;;;;;;;;;5017519;28;20053;-68
2023/09/03 00:13:44;;;;;;;4.60;2.58;;;22.00;92.50;;;;;;5045558;28;20044;-66
2023/09/03 00:16:10;;;;;;;4.18;2.25;;;22.10;92.40;;;;;;5037210;28;20056;-67
2023/09/03 00:18:37;;;;;;;5.70;2.60;;;22.00;90.80;;;;;;5053769;28;20445;-68
2023/09/03 00:21:06;;;;;;;3.60;2.30;;;22.00;91.20;;;;;;5054731;28;20052;-66
2023/09/03 00:23:32;;;;;;;5.43;2.60;;;22.40;91.30;;;;;;5052454;28;20406;-67
2023/09/03 00:26:01;;;;;;;4.40;2.40;;;22.00;92.60;;;;;;5037591;28;20045;-68
2023/09/03 00:28:27;;;;;;;3.88;2.30;;;22.00;92.40;;;;;;5055212;28;20053;-69
2023/09/03 00:31:07;;;;;;;5.97;2.40;;;22.00;92.40;;;;;;5048282;28;20045;-69
2023/09/03 00:33:34;;;;;;;4.32;2.35;;;;;;;;;;5080399;28;20048;-69
2023/09/03 00:36:03;;;;;;;4.57;2.60;;;;;;;;;;5070456;28;20079;-69
2023/09/03 00:38:29;;;;;;;4.40;2.60;;;22.00;92.40;;;;;;5053539;28;20056;-69
2023/09/03 00:40:55;;;;;;;6.00;2.75;;;22.10;91.40;;;;;;5057003;28;20444;-68
2023/09/03 00:43:21;;;;;;;3.75;2.60;;;21.80;92.40;;;;;;5055230;28;20037;-70
2023/09/03 00:45:47;;;;;;;4.47;2.72;;;21.90;92.40;;;;;;5037091;28;20824;-70
2023/09/03 00:48:23;;;;;;;4.30;2.28;;;21.90;91.20;;;;;;5070317;28;20040;-70
2023/09/03 00:50:49;;;;;;;3.95;2.33;;;21.90;92.40;;;;;;5055949;28;20131;-70
2023/09/03 00:53:15;;;;;;;5.70;2.70;;;22.00;91.20;;;;;;5069133;28;20139;-69
2023/09/03 00:55:42;;;;;;;4.53;2.50;;;;;;;;;;5070867;28;20454;-71
2023/09/03 00:58:08;;;;;;;4.03;2.40;;;21.80;92.30;;;;;;5057133;28;20581;-70
2023/09/03 01:00:35;;;;;;;5.05;2.58;;;21.80;92.30;;;;;;5068789;28;20501;-70
2023/09/03 01:03:02;;;;;;;4.75;2.20;;;22.00;92.50;;;;;;5055659;28;20041;-69
2023/09/03 01:05:28;;;;;;;3.90;2.42;;;;;;;;;;5052502;28;20053;-69
2023/09/03 01:07:54;;;;;;;4.15;2.40;;;21.80;90.50;;;;;;5046097;28;20126;-70
2023/09/03 01:10:40;;;;;;;5.38;2.38;;;21.90;91.20;;;;;;5043064;28;20511;-70
2023/09/03 01:13:25;;;;;;;4.68;2.38;;;21.90;92.50;;;;;;5038743;28;20374;-70
2023/09/03 01:15:54;;;;;;;3.92;2.42;;;22.00;92.40;;;;;;5073042;28;20102;-70
2023/09/03 01:18:22;;;;;;;4.40;2.55;;;21.90;92.40;;;;;;5071969;28;20083;-68
2023/09/03 01:21:05;;;;;;;4.57;2.40;;;21.70;92.30;;;;;;5065507;28;20513;-70
2023/09/03 01:23:42;;;;;;;4.55;2.40;;;22.00;92.40;;;;;;5051478;28;20040;-69
2023/09/03 01:26:12;;;;;;;4.57;2.42;;;21.60;91.10;;;;;;5050452;28;20501;-69
2023/09/03 01:28:39;;;;;;;4.20;2.40;;;22.10;92.50;;;;;;5036823;28;20103;-69
2023/09/03 01:31:23;;;;;;;5.53;2.55;;;21.80;92.30;;;;;;5053551;28;20060;-68
2023/09/03 01:33:49;;;;;;;3.80;2.40;;;;;;;;;;5053872;28;20481;-70
2023/09/03 01:36:15;;;;;;;5.50;2.47;;;;;;;;;;5035061;28;20107;-69
2023/09/03 01:38:41;;;;;;;4.55;2.28;;;21.90;92.40;;;;;;5015473;28;20037;-69
2023/09/03 01:41:07;;;;;;;5.28;2.50;;;;;;;;;;5088617;28;20087;-70
2023/09/03 01:43:34;;;;;;;4.75;2.70;;;21.80;92.30;;;;;;5061253;28;20098;-70
2023/09/03 01:46:19;;;;;;;5.05;2.60;;;21.50;90.40;;;;;;5068857;28;20040;-69
2023/09/03 01:49:18;;;;;;;4.65;2.50;;;21.90;90.50;;;;;;5076841;28;20561;-69
2023/09/03 01:52:21;;;;;;;4.85;2.30;;;21.90;92.40;;;;;;5067735;28;20071;-70
2023/09/03 01:54:48;;;;;;;4.13;2.22;;;21.80;92.40;;;;;;5064892;28;20186;-70
2023/09/03 01:57:24;;;;;;;5.10;2.33;;;21.90;92.40;;;;;;5034820;28;20441;-70
2023/09/03 01:59:53;;;;;;;5.05;2.38;;;21.80;92.40;;;;;;5052036;28;20040;-69
2023/09/03 02:02:19;;;;;;;4.70;2.58;;;;;;;;;;5049700;28;20068;-69
2023/09/03 02:04:45;;;;;;;3.83;2.20;;;21.90;92.50;;;;;;5065033;28;20541;-70
2023/09/03 02:07:11;;;;;;;4.68;2.90;;;;;;;;;;5055985;28;20088;-69
2023/09/03 02:09:37;;;;;;;4.47;2.40;;;21.80;92.40;;;;;;5024127;28;20084;-70
2023/09/03 02:12:05;;;;;;;4.28;2.63;;;21.80;92.30;;;;;;5039114;28;20088;-70
2023/09/03 02:14:31;;;;;;;4.00;2.60;;;;;;;;;;5031834;28;20045;-70
2023/09/03 02:16:57;;;;;;;4.30;2.50;;;21.80;92.30;;;;;;5048783;28;20496;-69
2023/09/03 02:19:23;;;;;;;5.15;2.45;;;21.80;91.40;;;;;;5034720;28;20108;-70
2023/09/03 02:21:50;;;;;;;5.72;2.85;;;21.80;92.50;;;;;;5044982;28;20451;-68
2023/09/03 02:24:16;;;;;;;4.30;2.70;;;21.80;92.30;;;;;;5022718;28;20038;-68
2023/09/03 02:26:45;;;;;;;4.15;2.50;;;21.80;92.30;;;;;;5045579;28;20060;-69
2023/09/03 02:29:12;;;;;;;5.30;2.80;;;;;;;;;;5041734;28;20416;-70
2023/09/03 02:31:38;;;;;;;6.60;2.97;;;21.80;92.40;;;;;;5036701;28;20040;-71
2023/09/03 02:34:04;;;;;;;3.95;2.58;;;21.80;90.80;;;;;;5041426;28;20056;-69
2023/09/03 02:36:31;;;;;;;4.82;2.40;;;;;;;;;;5042772;28;20045;-70
2023/09/03 02:39:01;;;;;;;4.30;2.33;;;21.70;92.40;;;;;;5059958;28;20033;-70
2023/09/03 02:41:29;;;;;;;4.20;2.60;;;;;;;;;;5017157;28;20143;-70
2023/09/03 02:43:57;;;;;;;4.85;2.33;;;;;;;;;;5043869;28;20099;-71
2023/09/03 02:46:23;;;;;;;4.00;2.20;;;21.70;92.40;;;;;;5039997;28;20420;-70
2023/09/03 02:48:49;;;;;;;3.70;2.42;;;;;;;;;;5037636;28;20425;-70
2023/09/03 02:51:15;;;;;;;6.35;2.90;;;;;;;;;;5042571;28;20102;-70
2023/09/03 02:53:43;;;;;;;4.47;2.58;;;;;;;;;;5039930;28;20045;-70
2023/09/03 02:56:10;;;;;;;5.25;2.50;;;21.90;92.40;;;;;;5026119;28;20043;-69
2023/09/03 02:58:38;;;;;;;5.15;2.88;;;;;;;;;;5050651;28;20052;-70
2023/09/03 03:01:07;;;;;;;3.92;2.40;;;21.70;92.30;;;;;;5037611;28;20128;-69
2023/09/03 03:03:34;;;;;;;4.07;2.72;;;;;;;;;;5038020;28;20354;-70
2023/09/03 03:06:03;;;;;;;5.88;2.47;;;;;;;;;;5062864;28;20049;-70
2023/09/03 03:08:29;;;;;;;5.53;2.92;;;;;;;;;;5023794;28;20390;-70
2023/09/03 03:11:06;;;;;;;5.03;2.90;;;21.90;92.50;;;;;;5048086;28;20045;-70
2023/09/03 03:13:32;;;;;;;4.53;2.60;;;;;;;;;;5037302;28;20047;-70
2023/09/03 03:16:07;;;;;;;4.70;2.80;;;21.70;91.20;;;;;;5049454;28;20072;-70
2023/09/03 03:18:37;;;;;;;5.20;3.10;;;21.80;92.40;;;;;;5058739;28;20398;-70
2023/09/03 03:21:10;;;;;;;4.43;2.90;;;21.80;90.60;;;;;;5039352;28;20041;-70
2023/09/03 03:23:36;;;;;;;4.18;2.67;;;;;;;;;;5015908;28;20056;-70
2023/09/03 03:26:03;;;;;;;5.93;2.80;;;;;;;;;;5075538;28;20133;-70
2023/09/03 03:28:35;;;;;;;4.63;2.90;;;21.70;92.40;;;;;;5034053;28;20049;-69
2023/09/03 03:31:17;;;;;;;5.00;2.38;;;21.50;92.40;;;;;;5043280;28;20037;-70
2023/09/03 03:33:44;;;;;;;4.50;2.88;;;21.80;92.40;;;;;;5079741;28;20057;-70
2023/09/03 03:36:20;;;;;;;5.20;2.75;;;21.70;92.40;;;;;;5022080;28;20053;-70
2023/09/03 03:38:46;;;;;;;4.60;2.63;;;;;;;;;;5035617;28;20508;-70
2023/09/03 03:41:12;;;;;;;4.97;2.60;;;21.70;92.40;;;;;;5038869;28;20108;-70
2023/09/03 03:43:40;;;;;;;6.57;2.80;;;21.60;91.20;;;;;;5039600;28;20045;-69
2023/09/03 03:46:06;;;;;;;4.05;2.60;;;21.60;92.40;;;;;;5020307;28;20072;-70
2023/09/03 03:48:32;;;;;;;5.28;2.60;;;;;;;;;;5047879;28;20406;-70
2023/09/03 03:50:59;;;;;;;4.50;2.45;;;;;;;;;;5049648;28;20044;-69
2023/09/03 03:53:25;;;;;;;4.82;2.55;;;;;;;;;;5023422;28;20053;-67
2023/09/03 03:56:01;;;;;;;3.72;2.35;;;21.50;92.40;;;;;;5080552;28;20045;-69
2023/09/03 03:58:28;;;;;;;4.18;2.70;;;21.50;92.40;;;;;;5046846;28;20513;-66
2023/09/03 04:00:54;;;;;;;4.63;2.65;;;21.60;92.40;;;;;;5035245;28;20091;-67
2023/09/03 04:03:22;;;;;;;4.03;2.65;;;21.50;91.20;;;;;;5046887;28;20748;-68
2023/09/03 04:06:08;;;;;;;4.63;2.60;;;21.50;92.40;;;;;;5058436;28;20081;-70
2023/09/03 04:08:36;;;;;;;4.07;2.40;;;21.70;92.50;;;;;;5074498;28;20360;-68
2023/09/03 04:11:04;;;;;;;4.38;2.47;;;21.50;91.30;;;;;;5038774;28;20187;-69
2023/09/03 04:13:31;;;;;;;3.97;2.53;;;;;;;;;;5067777;28;20094;-69
2023/09/03 04:15:57;;;;;;;4.22;2.50;;;;;;;;;;5050530;28;20057;-69
2023/09/03 04:18:24;;;;;;;5.63;2.63;;;;;;;;;;5038040;28;20040;-68
2023/09/03 04:20:53;;;;;;;3.95;2.25;;;21.40;91.10;;;;;;5045049;28;20371;-68
2023/09/03 04:23:19;;;;;;;4.80;2.83;;;;;;;;;;5062744;28;20040;-69
2023/09/03 04:25:45;;;;;;;4.95;3.00;;;;;;;;;;5044541;28;20533;-68
2023/09/03 04:28:12;;;;;;;4.68;2.88;;;;;;;;;;5070901;28;20046;-68
2023/09/03 04:30:38;;;;;;;4.15;2.78;;;;;;;;;;5042597;28;20038;-69
2023/09/03 04:33:06;;;;;;;4.65;2.65;;;21.50;92.50;;;;;;5050033;28;20103;-69
2023/09/03 04:35:32;;;;;;;3.80;2.47;;;;;;;;;;5075057;28;20045;-69
2023/09/03 04:37:58;;;;;;;4.13;2.30;;;;;;;;;;5043594;28;20057;-69
2023/09/03 04:40:24;;;;;;;6.05;2.80;;;21.60;92.40;;;;;;5054451;28;20034;-70
2023/09/03 04:42:50;;;;;;;5.35;2.65;;;21.40;92.40;;;;;;5060684;28;20137;-70
2023/09/03 04:45:16;;;;;;;4.65;2.35;;;21.50;92.40;;;;;;5025759;28;20044;-70
2023/09/03 04:47:43;;;;;;;3.63;2.38;;;21.40;92.40;;;;;;5033436;28;20498;-69
2023/09/03 04:50:10;;;;;;;3.58;2.40;;;;;;;;;;5044547;28;20057;-70
2023/09/03 04:52:39;;;;;;;3.78;2.20;;;21.50;92.40;;;;;;5038274;28;20095;-69
2023/09/03 04:55:05;;;;;;;4.35;2.40;;;21.30;92.40;;;;;;5042911;28;20053;-70
2023/09/03 04:57:31;;;;;;;4.47;2.33;;;;;;;;;;5050220;28;20123;-69
2023/09/03 04:59:57;;;;;;;3.80;2.30;;;;;;;;;;5063679;28;20120;-69
2023/09/03 05:02:26;;;;;;;5.75;2.47;;;;;;;;;;5040063;28;20041;-70
2023/09/03 05:04:52;;;;;;;3.85;2.47;;;21.60;92.50;;;;;;5059486;28;20049;-69
2023/09/03 05:07:18;;;;;;;3.78;2.30;;;;;;;;;;5045920;28;20793;-69
2023/09/03 05:09:44;;;;;;;3.42;2.15;;;;;;;;;;5028059;28;20046;-69
2023/09/03 05:12:10;;;;;;;4.10;2.10;;;21.50;92.40;;;;;;5013356;28;20042;-70
2023/09/03 05:14:36;;;;;;;5.10;2.55;;;21.60;92.40;;;;;;5050030;28;20037;-70
2023/09/03 05:17:03;;;;;;;3.33;2.13;;;;;;;;;;5033137;28;20053;-70
2023/09/03 05:19:29;;;;;;;4.95;2.50;;;;;;;;;;5019950;28;20074;-69
2023/09/03 05:21:54;;;;;;;4.20;2.58;;;21.50;92.40;;;;;;5046771;28;20244;-70
2023/09/03 05:24:21;;;;;;;5.00;2.20;;;;;;;;;;5065176;28;20108;-70
2023/09/03 05:26:48;;;;;;;4.03;2.35;;;21.60;92.50;;;;;;5031897;28;20132;-70
2023/09/03 05:29:14;;;;;;;3.67;2.28;;;;;;;;;;5000603;28;20372;-70
2023/09/03 05:31:42;;;;;;;3.58;2.22;;;21.60;92.40;;;;;;5020523;28;20045;-70
2023/09/03 05:34:08;;;;;;;3.67;2.28;;;21.60;92.40;;;;;;5029555;28;20100;-69
2023/09/03 05:36:35;;;;;;;4.00;2.50;;;;;;;;;;5048179;28;20824;-70
2023/09/03 05:39:01;;;;;;;4.05;2.35;;;;;;;;;;5028920;28;20046;-70
2023/09/03 05:41:28;;;;;;;4.53;2.70;;;;;;;;;;5029864;28;20050;-70
2023/09/03 05:43:54;;;;;;;4.00;2.47;;;;;;;;;;5024227;28;20125;-70
2023/09/03 05:46:20;;;;;;;4.10;2.50;;;;;;;;;;5054590;28;20088;-70
2023/09/03 05:48:52;;;;;;;5.15;2.30;;;21.70;92.40;;;;;;5022631;28;20038;-69
2023/09/03 05:51:19;;;;;;;4.07;2.40;;;;;;;;;;5004605;28;20479;-69
2023/09/03 05:53:45;;;;;;;4.20;2.17;;;;;;;;;;5005839;28;20446;-70
2023/09/03 05:56:11;;;;;;;4.20;2.70;;;;;;;;;;5008703;28;20514;-70
2023/09/03 05:58:37;;;;;;;4.93;2.35;;;;;;;;;;5029321;28;20518;-69
2023/09/03 06:01:13;;;;;;;4.53;2.50;;;21.90;92.00;;;;;;5026781;28;20060;-69
2023/09/03 06:03:39;;;;;;;4.60;2.55;;;22.20;92.00;;;;;;5014788;28;20038;-66
2023/09/03 06:06:06;;;;;;;4.65;2.50;;;22.00;91.90;;;;;;5051391;28;20065;-69
2023/09/03 06:08:33;;;;;;;4.53;2.35;;;22.00;91.90;;;;;;5041681;28;20049;-70
2023/09/03 06:11:00;;;;;;;3.85;2.22;;;22.00;90.60;;;;;;5035156;28;20399;-69
2023/09/03 06:13:29;;;;;;;4.05;2.50;;;22.30;90.60;;;;;;5030885;28;20080;-70
2023/09/03 06:15:56;;;;;;;3.53;2.30;;;;;;;;;;5025592;28;20129;-70
2023/09/03 06:18:22;;;;;;;4.78;2.33;;;;;;;;;;5050238;28;20049;-69
2023/09/03 06:20:48;;;;;;;3.35;2.30;;;;;;;;;;5065637;28;20037;-70
2023/09/03 06:23:18;;;;;;;4.10;2.40;;;22.30;89.70;;;;;;5043159;28;20098;-68
2023/09/03 06:25:45;;;;;;;3.90;2.13;;;22.40;91.60;;;;;;5034608;28;20043;-67
2023/09/03 06:28:11;;;;;;;3.38;2.00;;;22.40;91.50;;;;;;5050946;28;20075;-70
2023/09/03 06:30:38;;;;;;;3.33;2.00;;;;;;;;;;5036854;28;20494;-70
2023/09/03 06:33:04;;;;;;;3.55;2.28;;;;;;;;;;5049206;28;20048;-69
2023/09/03 06:35:30;;;;;;;3.17;2.05;;;;;;;;;;5041877;28;20048;-70
2023/09/03 06:37:57;;;;;;;3.70;2.00;;;22.70;91.40;;;;;;5047758;28;20041;-70
2023/09/03 06:40:23;;;;;;;3.45;1.98;;;;;;;;;;5046942;28;20040;-70
2023/09/03 06:42:49;;;;;;;4.43;2.20;;;22.80;91.20;;;;;;5042785;28;20037;-70
2023/09/03 06:45:15;;;;;;;4.15;2.03;;;22.50;90.10;;;;;;5030161;28;20037;-70
2023/09/03 06:47:41;;;;;;;3.80;2.00;;;;;;;;;;5023716;28;20491;-70
2023/09/03 06:50:08;;;;;;;3.67;2.10;;;;;;;;;;5043034;28;20576;-70
2023/09/03 06:52:34;;;;;;;4.13;1.90;;;;;;;;;;5043527;28;20041;-69
2023/09/03 06:55:01;;;;;;;3.70;2.15;;;22.90;91.00;;;;;;5049067;28;20482;-69
2023/09/03 06:57:27;;;;;;;3.03;1.98;;;;;;;;;;5043707;28;20056;-70
2023/09/03 06:59:54;;;;;;;2.72;1.92;;;23.10;88.80;;;;;;5056417;28;20048;-68
2023/09/03 07:02:22;;;;;;;3.95;1.88;;;23.10;90.10;;;;;;5041207;28;20213;-71
2023/09/03 07:04:48;;;;;;;4.45;2.00;;;23.30;89.80;;;;;;5027656;28;20053;-70
2023/09/03 07:07:14;;;;;;;3.05;1.85;;;23.20;89.20;;;;;;5031310;28;20520;-71
2023/09/03 07:09:40;;;;;;;3.80;2.10;;;23.50;90.60;;;;;;5040358;28;20379;-69
2023/09/03 07:12:06;;;;;;;3.50;2.00;;;23.40;89.00;;;;;;5045473;28;20091;-69
2023/09/03 07:14:33;;;;;;;3.53;1.83;;;23.60;90.40;;;;;;5045187;28;20036;-70
2023/09/03 07:16:59;;;;;;;4.03;2.10;;;23.60;88.80;;;;;;5051978;28;20125;-70
2023/09/03 07:19:26;;;;;;;2.85;1.70;;;23.60;88.60;;;;;;5032058;28;20065;-69
2023/09/03 07:21:52;;;;;;;3.63;2.15;;;23.80;88.20;;;;;;5047272;28;20049;-72
2023/09/03 07:24:18;;;;;;;2.95;1.70;;;23.90;88.30;;;;;;5032866;28;20034;-72
2023/09/03 07:26:44;;;;;;;3.92;1.73;;;24.00;90.10;;;;;;5035630;28;20103;-67
2023/09/03 07:29:12;;;;;;;3.97;2.05;;;24.00;87.10;;;;;;5011055;28;20033;-67
2023/09/03 07:31:41;;;;;;;5.97;2.15;;;23.80;87.60;;;;;;5043122;28;20041;-71
2023/09/03 07:34:13;;;;;;;5.57;2.38;;;24.50;87.80;;;;;;5082197;28;20508;-70
2023/09/03 07:36:39;;;;;;;4.65;2.28;;;24.20;86.10;;;;;;5042624;28;20417;-68
2023/09/03 07:39:05;;;;;;;4.20;2.13;;;24.10;89.90;;;;;;5048972;28;20468;-69
2023/09/03 07:41:34;;;;;;;6.40;2.60;;;24.30;87.20;;;;;;5047587;28;20111;-70
2023/09/03 07:44:00;;;;;;;5.07;2.45;;;24.00;85.60;;;;;;5077041;28;20099;-67
2023/09/03 07:46:26;;;;;;;5.15;2.55;;;24.40;87.20;;;;;;5040884;28;20477;-70
2023/09/03 07:48:52;;;;;;;4.47;2.33;;;24.00;86.70;;;;;;5033780;28;20042;-72
2023/09/03 07:51:19;;;;;;;6.05;2.60;;;24.30;86.70;;;;;;5052297;28;20041;-71
2023/09/03 07:53:47;;;;;;;5.63;2.53;;;24.20;86.90;;;;;;5050052;28;20056;-72
2023/09/03 07:56:14;;;;;;;4.53;2.50;;;24.20;89.20;;;;;;5043023;28;20498;-71
2023/09/03 07:58:42;;;;;;;6.15;2.50;;;24.10;87.30;;;;;;5051721;28;20041;-62
2023/09/03 08:01:12;;;;;;;4.55;2.40;;;24.00;86.80;;;;;;5040886;28;20076;-73
2023/09/03 08:03:38;;;;;;;7.05;2.70;;;23.90;85.40;;;;;;5048603;28;20093;-73
2023/09/03 08:06:05;;;;;;;6.60;3.03;;;24.10;86.80;;;;;;5046947;28;20173;-72
2023/09/03 08:08:34;;;;;;;4.70;2.70;;;23.90;89.10;;;;;;5074369;28;20052;-72
2023/09/03 08:11:00;;;;;;;5.43;2.80;;;23.90;86.80;;;;;;5073298;28;20045;-72
2023/09/03 08:13:26;;;;;;;6.13;2.90;;;23.90;86.70;;;;;;5073134;28;20095;-71
2023/09/03 08:15:52;;;;;;;4.93;2.80;;;24.00;86.70;;;;;;5072351;28;20118;-71
2023/09/03 08:18:18;;;;;;;5.50;2.88;;;24.10;86.80;;;;;;5071397;28;20043;-71
2023/09/03 08:20:44;;;;;;;4.60;2.40;;;24.10;87.10;;;;;;5051489;28;20040;-71
2023/09/03 08:23:13;;;;;;;3.92;2.35;;;24.00;86.70;;;;;;5069188;28;20405;-72
2023/09/03 08:25:39;;;;;;;4.38;2.45;;;24.10;89.00;;;;;;5064252;28;20083;-72
2023/09/03 08:28:06;;;;;;;5.88;2.80;;;24.20;86.80;;;;;;5069443;28;20082;-61
2023/09/03 08:30:32;;;;;;;5.70;2.45;;;24.00;86.70;;;;;;5075197;28;20127;-62
2023/09/03 08:32:58;;;;;;;5.07;2.25;;;24.10;86.50;;;;;;5075275;28;20143;-72
2023/09/03 08:35:24;;;;;;;5.03;1.90;;;24.40;86.70;;;;;;5058168;28;20041;-70
2023/09/03 08:37:50;;;;;;;5.72;2.42;;;24.10;86.40;;;;;;5052539;28;20037;-72
2023/09/03 08:40:17;;;;;;;5.80;2.22;;;24.40;86.60;;;;;;5071608;28;20048;-73
2023/09/03 08:42:43;;;;;;;4.65;2.00;;;24.20;89.00;;;;;;5057207;28;20122;-72
2023/09/03 08:45:15;;;;;;;5.15;1.95;;;24.20;86.30;;;;;;5054171;28;20048;-71
2023/09/03 08:47:43;;;;;;;6.10;2.40;;;24.20;86.30;;;;;;5040935;28;20124;-72
2023/09/03 08:50:10;;;;;;;6.18;2.40;;;24.40;86.10;;;;;;5037447;28;20052;-73
2023/09/03 08:52:39;;;;;;;3.95;1.65;;;24.20;85.90;;;;;;5036539;28;20556;-72
2023/09/03 08:55:05;;;;;;;5.57;2.22;;;24.30;86.00;;;;;;5039905;28;20405;-73
2023/09/03 08:57:34;;;;;;;3.08;1.83;;;24.30;85.60;;;;;;5043705;28;20409;-72
2023/09/03 09:00:07;;;;;;;5.10;2.13;;;24.20;85.60;;;;;;5069819;28;20405;-73
2023/09/03 09:02:33;;;;;;;5.00;2.60;;;24.30;85.20;;;;;;5067856;28;20048;-72
2023/09/03 09:05:09;;;;;;;5.40;2.10;;;24.30;85.30;;;;;;5071190;28;20045;-73
2023/09/03 09:07:35;;;;;;;3.75;1.88;;;22.70;84.40;;;;;;5070279;28;20071;-72
2023/09/03 09:10:06;;;;;;;3.92;2.17;;;24.30;84.60;;;;;;5053165;28;20052;-72
2023/09/03 09:12:51;;;;;;;6.22;2.20;;;24.20;84.60;;;;;;5055947;28;20040;-73
2023/09/03 09:15:19;;;;;;;4.25;1.90;;;24.10;83.20;;;;;;5051065;28;20113;-73
2023/09/03 09:17:45;;;;;;;4.65;2.15;;;24.30;85.00;;;;;;5073466;28;20514;-73
2023/09/03 09:20:12;;;;;;;4.18;2.10;;;24.20;84.80;;;;;;5037099;28;20155;-72
2023/09/03 09:22:39;;;;;;;2.97;1.88;;;24.20;84.70;;;;;;5038164;28;20102;-72
2023/09/03 09:25:06;;;;;;;4.55;1.67;;;24.40;84.90;;;;;;5072843;28;20124;-72
2023/09/03 09:27:37;;;;;;;5.82;2.00;;;24.10;84.50;;;;;;5072421;28;20040;-72
2023/09/03 09:30:13;;;;;;;3.88;1.90;;;24.20;87.50;;;;;;5036082;28;20040;-62
2023/09/03 09:32:43;;;;;;;3.78;2.20;;;24.20;87.60;;;;;;5048758;28;20040;-61
2023/09/03 09:35:09;;;;;;;3.75;2.05;;;24.50;88.00;;;;;;5064651;28;20071;-72
2023/09/03 09:37:41;;;;;;;5.38;2.92;;;24.30;84.80;;;;;;5069765;28;20141;-72
2023/09/03 09:40:07;;;;;;;4.88;2.40;;;24.30;87.50;;;;;;5065722;28;20043;-61
2023/09/03 09:42:34;;;;;;;4.97;2.72;;;24.30;84.80;;;;;;5037523;28;20041;-60
2023/09/03 09:45:00;;;;;;;4.78;2.10;;;24.30;84.80;;;;;;5067724;28;20129;-62
2023/09/03 09:47:26;;;;;;;4.55;1.98;;;24.20;84.70;;;;;;5055547;28;20450;-61
2023/09/03 09:49:55;;;;;;;3.40;2.00;;;24.50;84.90;;;;;;5021309;28;20535;-73
2023/09/03 09:52:21;;;;;;;4.07;2.08;;;24.10;85.00;;;;;;5030321;28;20402;-72
2023/09/03 09:54:47;;;;;;;3.10;1.88;;;24.60;85.40;;;;;;5071581;28;20040;-72
2023/09/03 09:57:22;;;;;;;4.70;2.17;;;24.30;84.80;;;;;;5027487;28;20058;-69
2023/09/03 09:59:52;;;;;;;4.28;2.15;;;24.10;83.30;;;;;;5027202;28;20044;-62
2023/09/03 10:02:19;;;;;;;4.13;2.00;;;24.20;84.80;;;;;;5051279;28;20102;-72
2023/09/03 10:04:46;;;;;;;5.03;2.40;;;24.60;84.80;;;;;;5019452;28;20532;-70
2023/09/03 10:07:15;;;;;;;4.30;2.20;;;24.30;87.20;;;;;;5053801;28;20182;-70
2023/09/03 10:09:43;;;;;;;4.22;2.05;;;24.40;87.40;;;;;;5070598;28;20083;-72
2023/09/03 10:12:09;;;;;;;4.80;2.22;;;24.30;84.50;;;;;;5067968;28;20048;-73
2023/09/03 10:14:35;;;;;;;5.43;2.00;;;24.50;84.30;;;;;;5038284;28;20041;-74
2023/09/03 10:17:03;;;;;;;5.45;2.20;;;24.40;84.20;;;;;;5066043;28;20047;-72
2023/09/03 10:19:51;;;;;;;4.68;1.95;;;24.20;84.60;;;;;;5053416;28;20051;-72
2023/09/03 10:22:19;;;;;;;5.22;1.98;;;24.30;83.40;;;;;;5020880;28;20405;-72
2023/09/03 10:24:54;;;;;;;3.72;1.90;;;24.60;85.00;;;;;;5058120;28;20048;-73
2023/09/03 10:27:21;;;;;;;5.18;2.10;;;24.50;85.10;;;;;;5061141;28;20041;-72
2023/09/03 10:29:47;;;;;;;4.28;2.03;;;24.40;84.80;;;;;;5060720;28;20394;-71
2023/09/03 10:32:13;;;;;;;4.00;1.73;;;;;;;;;;5071909;28;20467;-62
2023/09/03 10:34:39;;;;;;;4.47;2.00;;;24.50;82.50;;;;;;5071445;28;20071;-61
2023/09/03 10:37:06;;;;;;;5.13;2.22;;;24.40;87.00;;;;;;5062878;28;20052;-71
2023/09/03 10:39:33;;;;;;;3.33;1.75;;;24.40;84.60;;;;;;5030310;28;20432;-71
2023/09/03 10:42:23;;;;;;;6.00;2.10;;;24.20;84.30;;;;;;5031769;28;20129;-72
2023/09/03 10:44:58;;;;;;;4.45;2.13;;;23.70;83.90;;;;;;5064059;28;20110;-72
2023/09/03 10:47:24;;;;;;;3.75;2.10;;;24.60;83.00;;;;;;5034425;28;20048;-72
2023/09/03 10:49:51;;;;;;;3.55;1.90;;;22.20;83.00;;;;;;5031907;28;20037;-71
2023/09/03 10:52:33;;;;;;;3.78;1.65;;;24.80;87.20;;;;;;5018156;28;20056;-73
2023/09/03 10:55:20;;;;;;;2.40;1.50;;;24.50;83.50;;;;;;5051855;28;20037;-72
2023/09/03 10:57:46;;;;;;;3.45;1.75;;;24.90;84.50;;;;;;5040851;28;20302;-61
2023/09/03 11:00:16;;;;;;;3.83;1.90;;;24.50;86.80;;;;;;5067363;28;20051;-62
2023/09/03 11:02:42;;;;;;;4.25;1.92;;;24.60;87.10;;;;;;5070787;28;20090;-71
2023/09/03 11:05:19;;;;;;;4.07;1.83;;;24.70;84.10;;;;;;5053995;28;20048;-72
2023/09/03 11:07:46;;;;;;;3.83;1.90;;;24.60;84.40;;;;;;5064381;28;20120;-72
2023/09/03 11:10:21;;;;;;;4.68;2.13;;;23.30;83.40;;;;;;5052282;28;20053;-72
2023/09/03 11:12:47;;;;;;;4.55;1.80;;;24.80;84.40;;;;;;5070942;28;20087;-71
2023/09/03 11:15:16;;;;;;;4.28;1.90;;;24.80;84.30;;;;;;5071942;28;20634;-72
2023/09/03 11:18:08;;;;;;;3.63;1.70;;;24.60;86.80;;;;;;5061140;28;20398;-72
2023/09/03 11:20:35;;;;;;;4.63;1.77;;;25.30;82.90;;;;;;5050645;28;20064;-70
2023/09/03 11:23:04;;;;;;;3.90;1.70;;;25.10;84.70;;;;;;5068783;28;20048;-72
2023/09/03 11:25:35;;;;;;;4.53;2.00;;;25.00;85.50;;;;;;5054326;28;20045;-72
2023/09/03 11:28:01;;;;;;;3.28;1.65;;;24.60;86.50;;;;;;5036477;28;20041;-73
2023/09/03 11:30:28;;;;;;;3.33;1.80;;;24.90;85.10;;;;;;5019614;28;20088;-72
2023/09/03 11:32:54;;;;;;;4.13;1.90;;;24.80;84.00;;;;;;5055981;28;20049;-68
2023/09/03 11:35:20;;;;;;;3.53;1.88;;;24.80;84.20;;;;;;5066106;28;20109;-64
2023/09/03 11:37:45;;;;;;;3.97;1.90;;;24.70;83.90;;;;;;5039887;28;20056;-72
2023/09/03 11:40:14;;;;;;;7.45;2.05;;;24.60;83.30;;;;;;5039193;28;20040;-66
2023/09/03 11:42:44;;;;;;;3.53;1.77;;;24.60;82.50;;;;;;5037934;28;20092;-61
2023/09/03 11:45:11;;;;;;;5.15;2.00;;;24.90;83.80;;;;;;5051748;28;20060;-62
2023/09/03 11:47:40;;;;;;;3.72;1.80;;;24.80;83.60;;;;;;5051761;28;20045;-61
2023/09/03 11:50:13;;;;;;;4.55;1.83;;;25.00;83.90;;;;;;5020866;28;20107;-61
2023/09/03 11:52:41;;;;;;;4.53;1.50;;;24.80;83.20;;;;;;5039391;28;20137;-62
2023/09/03 11:55:07;;;;;;;3.42;1.60;;;25.00;83.80;;;;;;5050143;28;20048;-61
2023/09/03 11:57:36;;;;;;;4.47;1.80;;;25.00;83.40;;;;;;5054399;28;20114;-70
2023/09/03 12:00:03;;;;;;;3.53;1.77;;;24.80;83.60;;;;;;5041077;28;20049;-62
2023/09/03 12:02:29;;;;;;;5.80;1.70;;;25.10;83.70;;;;;;5024688;28;20090;-61
2023/09/03 12:04:55;;;;;;;2.90;1.67;;;25.00;83.40;;;;;;5053861;28;20429;-61
2023/09/03 12:07:20;;;;;;;6.22;1.95;;;25.20;83.40;;;;;;5043278;28;20037;-69
2023/09/03 12:09:49;;;;;;;3.38;1.50;;;24.90;83.00;;;;;;5016814;28;20057;-70
2023/09/03 12:12:16;;;;;;;5.10;1.80;;;25.00;83.00;;;;;;5059374;28;20056;-61
2023/09/03 12:14:42;;;;;;;4.00;1.75;;;25.10;83.00;;;;;;5033562;28;20044;-62
2023/09/03 12:17:08;;;;;;;3.08;1.45;;;25.10;85.80;;;;;;5036323;28;20045;-61
2023/09/03 12:19:38;;;;;;;3.80;1.80;;;24.90;82.30;;;;;;5044086;28;20094;-61
2023/09/03 12:22:04;;;;;;;4.07;1.90;;;25.00;82.80;;;;;;5049314;28;20513;-61
2023/09/03 12:24:30;;;;;;;4.32;1.75;;;25.10;82.30;;;;;;5060795;28;20486;-62
2023/09/03 12:27:03;;;;;;;3.47;1.60;;;25.40;82.40;;;;;;5010368;28;20048;-73
2023/09/03 12:29:36;;;;;;;3.35;1.73;;;25.10;82.40;;;;;;5021057;28;20040;-61
2023/09/03 12:32:09;;;;;;;3.28;1.48;;;25.30;80.80;;;;;;5059611;28;20140;-72
2023/09/03 12:34:36;;;;;;;3.83;1.85;;;25.20;84.50;;;;;;5030458;28;20048;-73
2023/09/03 12:37:02;;;;;;;3.42;1.50;;;25.20;81.70;;;;;;5054470;28;20045;-71
2023/09/03 12:39:31;;;;;;;2.65;1.55;;;25.40;81.60;;;;;;5015903;28;20037;-62
2023/09/03 12:41:57;;;;;;;8.32;1.98;;;25.20;84.40;;;;;;5016552;28;20053;-61
2023/09/03 12:44:24;;;;;;;3.38;1.50;;;25.30;81.90;;;;;;5028384;28;20048;-61
2023/09/03 12:46:50;;;;;;;4.60;1.70;;;25.10;81.50;;;;;;5046370;28;20432;-71
2023/09/03 12:49:15;;;;;;;5.03;2.03;;;25.40;81.60;;;;;;5048258;28;20444;-61
2023/09/03 12:51:41;;;;;;;6.95;1.80;;;25.40;81.70;;;;;;5043519;28;20123;-70
2023/09/03 12:54:08;;;;;;;4.25;1.60;;;25.30;81.90;;;;;;5023533;28;20051;-61
2023/09/03 12:56:34;;;;;;;8.07;1.95;;;25.40;81.70;;;;;;5052036;28;20056;-72
2023/09/03 12:59:04;;;;;;;6.93;2.10;;;25.50;82.10;;;;;;5070887;28;20147;-62
2023/09/03 13:01:35;;;;;;;7.28;2.00;;;25.40;81.50;;;;;;5067324;28;20554;-61
2023/09/03 13:04:01;;;;;;;7.13;2.05;;;25.20;81.30;;;;;;5073846;28;20044;-61
2023/09/03 13:06:27;;;;;;;7.78;1.90;;;25.40;81.40;;;;;;5072502;28;20126;-61
2023/09/03 13:08:53;;;;;;;6.38;1.70;;;25.20;81.10;;;;;;5058433;28;20128;-61
2023/09/03 13:11:19;;;;;;;6.05;2.13;;;25.10;80.80;;;;;;5067395;28;20548;-61
2023/09/03 13:13:51;;;;;;;6.88;1.92;;;25.60;81.70;;;;;;5071963;28;20043;-61
2023/09/03 13:16:21;;;;;;;3.97;1.67;;;25.30;80.90;;;;;;5061312;28;20122;-61